createdAt,value
2023-03-15T00:00:01.621Z,99230.84
2023-03-15T00:03:19.797Z,99246.31
2023-03-15T00:06:21.871Z,99243.62
2023-03-15T00:09:36.761Z,99213.53
2023-03-15T00:12:51.721Z,99256.44
2023-03-15T00:16:08.800Z,99265.97
2023-03-15T00:19:17.762Z,99276.09
2023-03-15T00:22:26.323Z,99269.87
2023-03-15T00:25:34.738Z,99276.28
2023-03-15T00:28:50.066Z,99275.47
2023-03-15T00:31:58.729Z,99269.97
2023-03-15T00:35:07.668Z,99267.41
2023-03-15T00:38:16.878Z,99258.97
2023-03-15T00:41:26.190Z,99264.53
2023-03-15T00:44:40.753Z,99261.00
2023-03-15T00:47:50.870Z,99254.13
2023-03-15T00:51:14.733Z,99248.78
2023-03-15T00:54:23.414Z,99250.81
2023-03-15T00:57:31.922Z,99253.78
2023-03-15T01:00:40.479Z,99247.47
2023-03-15T01:03:49.795Z,99247.09
2023-03-15T01:07:05.853Z,99240.81
2023-03-15T01:10:16.519Z,99248.13
2023-03-15T01:13:24.771Z,99255.25
2023-03-15T01:16:39.774Z,99256.25
2023-03-15T01:19:54.796Z,99258.59
2023-03-15T01:23:03.412Z,99249.28
2023-03-15T01:26:13.793Z,99245.97
2023-03-15T01:29:29.153Z,99241.34
2023-03-15T01:32:43.857Z,99248.38
2023-03-15T01:36:01.940Z,99248.84
2023-03-15T01:39:10.830Z,99230.19
2023-03-15T01:42:19.929Z,99251.81
2023-03-15T01:45:47.826Z,99244.75
2023-03-15T01:49:11.828Z,99251.41
2023-03-15T01:52:32.102Z,99233.44
2023-03-15T01:55:47.841Z,99242.06
2023-03-15T01:58:58.826Z,99251.78
2023-03-15T02:02:15.169Z,99235.78
2023-03-15T02:05:34.795Z,99232.41
2023-03-15T02:08:49.841Z,99249.09
2023-03-15T02:11:57.781Z,99246.22
2023-03-15T02:15:14.758Z,99244.00
2023-03-15T02:18:24.126Z,99233.19
2023-03-15T02:21:50.806Z,99235.59
2023-03-15T02:25:23.811Z,99234.16
2023-03-15T02:28:33.133Z,99234.03
2023-03-15T02:31:48.932Z,99238.97
2023-03-15T02:34:51.195Z,99244.59
2023-03-15T02:38:06.868Z,99252.50
2023-03-15T02:41:09.168Z,99253.25
2023-03-15T02:44:31.821Z,99258.16
2023-03-15T02:47:40.842Z,99257.91
2023-03-15T02:50:51.024Z,99268.72
2023-03-15T02:53:59.814Z,99263.00
2023-03-15T02:57:08.712Z,99262.75
2023-03-15T03:00:18.830Z,99272.66
2023-03-15T03:03:27.458Z,99272.03
2023-03-15T03:06:42.070Z,99272.41
2023-03-15T03:09:50.609Z,99275.47
2023-03-15T03:13:06.871Z,99272.84
2023-03-15T03:16:15.562Z,99261.06
2023-03-15T03:19:29.860Z,99263.13
2023-03-15T03:22:44.923Z,99272.72
2023-03-15T03:25:46.811Z,99266.44
2023-03-15T03:29:08.842Z,99275.28
2023-03-15T03:32:11.254Z,99267.66
2023-03-15T03:35:25.807Z,99271.44
2023-03-15T03:38:33.877Z,99270.69
2023-03-15T03:41:42.726Z,99257.81
2023-03-15T03:44:51.028Z,99254.75
2023-03-15T03:48:09.898Z,99256.41
2023-03-15T03:51:18.567Z,99253.03
2023-03-15T03:54:26.853Z,99259.38
2023-03-15T03:57:35.706Z,99231.06
2023-03-15T04:00:50.881Z,99251.78
2023-03-15T04:03:52.719Z,99255.56
2023-03-15T04:07:07.842Z,99261.91
2023-03-15T04:10:10.943Z,99264.72
2023-03-15T04:13:27.836Z,99248.66
2023-03-15T04:16:43.932Z,99259.97
2023-03-15T04:19:52.573Z,99266.44
2023-03-15T04:23:08.859Z,99268.94
2023-03-15T04:26:17.012Z,99272.84
2023-03-15T04:29:25.774Z,99276.53
2023-03-15T04:32:33.934Z,99285.47
2023-03-15T04:35:48.945Z,99284.41
2023-03-15T04:39:06.031Z,99290.25
2023-03-15T04:42:21.109Z,99296.62
2023-03-15T04:45:36.898Z,99307.13
2023-03-15T04:48:45.430Z,99286.94
2023-03-15T04:51:53.829Z,99264.16
2023-03-15T04:55:02.545Z,99315.09
2023-03-15T04:58:10.845Z,99313.13
2023-03-15T05:01:21.082Z,99322.03
2023-03-15T05:04:29.911Z,99327.31
2023-03-15T05:07:38.928Z,99337.84
2023-03-15T05:10:46.936Z,99334.66
2023-03-15T05:14:02.878Z,99328.84
2023-03-15T05:17:04.912Z,99339.56
2023-03-15T05:20:21.898Z,99330.87
2023-03-15T05:23:30.461Z,99337.41
2023-03-15T05:26:38.877Z,99313.66
2023-03-15T05:29:54.419Z,99328.72
2023-03-15T05:33:03.259Z,99328.56
2023-03-15T05:36:18.031Z,99331.59
2023-03-15T05:39:26.891Z,99332.91
2023-03-15T05:42:35.880Z,99329.87
2023-03-15T05:45:45.006Z,99322.50
2023-03-15T05:48:54.060Z,99329.72
2023-03-15T05:52:02.926Z,99327.53
2023-03-15T05:55:18.165Z,99317.31
2023-03-15T05:58:33.878Z,99345.63
2023-03-15T06:01:35.996Z,99331.91
2023-03-15T06:04:50.879Z,99339.44
2023-03-15T06:07:58.900Z,99338.25
2023-03-15T06:11:13.929Z,99341.75
2023-03-15T06:14:22.674Z,99350.03
2023-03-15T06:17:38.006Z,99360.00
2023-03-15T06:20:42.404Z,99375.22
2023-03-15T06:23:56.920Z,99369.88
2023-03-15T06:27:05.899Z,99371.88
2023-03-15T06:30:22.241Z,99369.37
2023-03-15T06:33:30.924Z,99386.09
2023-03-15T06:36:46.024Z,99383.44
2023-03-15T06:40:00.906Z,99382.59
2023-03-15T06:43:21.933Z,99392.81
2023-03-15T06:46:23.878Z,99386.09
2023-03-15T06:49:38.969Z,99373.72
2023-03-15T06:52:47.694Z,99384.75
2023-03-15T06:56:02.913Z,99396.66
2023-03-15T06:59:11.932Z,99400.84
2023-03-15T07:02:27.016Z,99410.38
2023-03-15T07:05:36.006Z,99413.53
2023-03-15T07:08:50.970Z,99407.37
2023-03-15T07:11:52.727Z,99416.75
2023-03-15T07:15:07.972Z,99420.25
2023-03-15T07:18:16.586Z,99430.63
2023-03-15T07:24:54.946Z,99424.59
2023-03-15T07:28:03.054Z,99431.13
2023-03-15T07:31:18.991Z,99445.03
2023-03-15T07:34:28.174Z,99444.37
2023-03-15T07:37:44.754Z,99444.53
2023-03-15T07:40:49.714Z,99438.81
2023-03-15T07:44:04.993Z,99450.72
2023-03-15T07:47:13.608Z,99451.91
2023-03-15T07:50:31.001Z,99463.03
2023-03-15T07:53:39.546Z,99447.44
2023-03-15T07:56:47.980Z,99448.94
2023-03-15T08:11:23.065Z,99461.78
2023-03-15T08:14:38.006Z,99461.44
2023-03-15T08:18:00.995Z,99462.78
2023-03-15T08:21:10.980Z,99467.19
2023-03-15T08:24:20.673Z,99468.88
2023-03-15T08:27:31.206Z,99470.06
2023-03-15T08:31:13.903Z,99466.72
2023-03-15T08:41:13.013Z,99493.53
2023-03-15T08:44:36.283Z,99498.53
2023-03-15T08:47:51.041Z,99507.41
2023-03-15T08:51:13.970Z,99512.63
2023-03-15T08:54:30.014Z,99518.13
2023-03-15T08:57:37.436Z,99521.47
2023-03-15T09:00:55.994Z,99538.59
2023-03-15T09:03:58.078Z,99541.94
2023-03-15T09:07:12.992Z,99546.63
2023-03-15T09:10:31.376Z,99553.66
2023-03-15T09:13:40.230Z,99558.34
2023-03-15T09:16:48.655Z,99571.94
2023-03-15T09:19:57.088Z,99575.13
2023-03-15T09:23:12.987Z,99580.81
2023-03-15T09:26:15.002Z,99591.91
2023-03-15T09:29:29.986Z,99593.03
2023-03-15T09:32:40.024Z,99596.72
2023-03-15T09:35:52.888Z,99600.94
2023-03-15T09:39:04.010Z,99619.81
2023-03-15T09:42:34.385Z,99621.16
2023-03-15T09:46:16.995Z,99630.69
2023-03-15T09:49:54.235Z,99635.09
2023-03-15T09:53:10.463Z,99632.91
2023-03-15T09:56:32.009Z,99642.44
2023-03-15T09:59:53.011Z,99640.75
2023-03-15T10:03:09.050Z,99634.25
2023-03-15T10:06:26.059Z,99639.72
2023-03-15T10:09:41.025Z,99637.19
2023-03-15T10:13:10.023Z,99641.75
2023-03-15T10:16:31.240Z,99645.09
2023-03-15T10:19:57.070Z,99651.16
2023-03-15T10:23:21.265Z,99656.88
2023-03-15T10:26:43.023Z,99646.50
2023-03-15T10:29:47.211Z,99640.00
2023-03-15T10:33:09.022Z,99643.63
2023-03-15T10:36:20.869Z,99665.00
2023-03-15T10:39:36.014Z,99671.34
2023-03-15T10:42:40.230Z,99663.81
2023-03-15T10:46:12.199Z,99662.34
2023-03-15T10:49:16.106Z,99667.53
2023-03-15T10:52:36.011Z,99672.72
2023-03-15T10:55:52.062Z,99671.06
2023-03-15T10:59:11.466Z,99678.97
2023-03-15T11:02:32.039Z,99678.47
2023-03-15T11:05:50.334Z,99690.38
2023-03-15T11:09:21.250Z,99682.16
2023-03-15T11:16:12.063Z,99697.25
2023-03-15T11:19:26.422Z,99699.59
2023-03-15T11:22:35.033Z,99699.94
2023-03-15T11:25:50.037Z,99702.97
2023-03-15T11:28:55.966Z,99705.97
2023-03-15T11:32:22.086Z,99702.09
2023-03-15T11:35:49.079Z,99703.59
2023-03-15T11:38:52.249Z,99711.34
2023-03-15T11:42:13.042Z,99705.28
2023-03-15T11:45:41.099Z,99704.44
2023-03-15T11:48:57.240Z,99702.13
2023-03-15T11:52:13.033Z,99694.88
2023-03-15T11:55:19.859Z,99706.59
2023-03-15T11:58:40.066Z,99706.09
2023-03-15T12:02:08.259Z,99710.06
2023-03-15T12:09:41.046Z,99722.03
2023-03-15T12:12:59.025Z,99723.00
2023-03-15T12:16:07.074Z,99723.00
2023-03-15T12:19:25.076Z,99722.28
2023-03-15T12:22:40.068Z,99733.47
2023-03-15T12:26:10.162Z,99732.91
2023-03-15T12:29:27.081Z,99729.69
2023-03-15T12:32:58.082Z,99720.13
2023-03-15T12:36:03.811Z,99732.97
2023-03-15T12:39:42.032Z,99736.94
2023-03-15T12:43:08.058Z,99744.38
2023-03-15T12:46:53.077Z,99738.22
2023-03-15T12:50:41.111Z,99744.63
2023-03-15T12:53:53.857Z,99729.94
2023-03-15T12:57:14.104Z,99733.66
2023-03-15T13:00:28.322Z,99733.78
2023-03-15T13:03:36.860Z,99744.81
2023-03-15T13:07:02.049Z,99745.72
2023-03-15T13:10:34.344Z,99751.72
2023-03-15T13:14:08.062Z,99757.03
2023-03-15T13:17:35.273Z,99763.38
2023-03-15T13:20:49.104Z,99770.31
2023-03-15T13:23:59.739Z,99773.37
2023-03-15T13:27:18.129Z,99775.31
2023-03-15T13:30:48.770Z,99783.53
2023-03-15T13:34:00.093Z,99779.22
2023-03-15T13:37:32.315Z,99783.91
2023-03-15T13:40:48.864Z,99792.31
2023-03-15T13:44:27.106Z,99792.53
2023-03-15T13:47:35.162Z,99808.78
2023-03-15T13:50:49.257Z,99799.31
2023-03-15T13:54:15.176Z,99805.06
2023-03-15T13:57:31.183Z,99800.53
2023-03-15T14:00:46.218Z,99805.56
2023-03-15T14:04:00.851Z,99804.47
2023-03-15T14:07:25.089Z,99818.09
2023-03-15T14:10:45.074Z,99820.13
2023-03-15T14:14:01.098Z,99838.28
2023-03-15T14:17:32.206Z,99835.75
2023-03-15T14:20:57.264Z,99853.38
2023-03-15T14:24:13.146Z,99855.53
2023-03-15T14:27:26.687Z,99857.38
2023-03-15T14:30:37.140Z,99860.03
2023-03-15T14:33:53.406Z,99859.91
2023-03-15T14:37:02.119Z,99870.78
2023-03-15T14:40:23.164Z,99871.63
2023-03-15T14:43:34.107Z,99870.44
2023-03-15T14:46:49.649Z,99862.88
2023-03-15T14:50:04.205Z,99868.94
2023-03-15T14:53:17.946Z,99873.94
2023-03-15T14:56:27.107Z,99874.91
2023-03-15T14:59:42.170Z,99886.47
2023-03-15T15:03:02.131Z,99887.66
2023-03-15T15:06:14.370Z,99889.13
2023-03-15T15:09:25.393Z,99910.84
2023-03-15T15:12:34.154Z,99913.56
2023-03-15T15:15:55.550Z,99912.84
2023-03-15T15:19:04.346Z,99922.22
2023-03-15T15:22:20.128Z,99931.16
2023-03-15T15:25:32.719Z,99931.94
2023-03-15T15:28:47.118Z,99945.13
2023-03-15T15:31:48.993Z,99948.16
2023-03-15T15:35:04.167Z,99951.72
2023-03-15T15:38:20.201Z,99943.03
2023-03-15T15:41:35.472Z,99961.97
2023-03-15T15:44:59.193Z,99967.75
2023-03-15T15:48:16.937Z,99971.28
2023-03-15T15:51:39.551Z,99975.81
2023-03-15T15:54:56.148Z,99976.50
2023-03-15T15:57:58.200Z,99980.63
2023-03-15T16:01:15.177Z,99989.16
2023-03-15T16:04:17.490Z,99985.47
2023-03-15T16:07:33.185Z,99988.56
2023-03-15T16:10:42.256Z,99996.81
2023-03-15T16:13:52.925Z,100012.38
2023-03-15T16:20:35.177Z,100021.03
2023-03-15T16:23:51.413Z,100019.06
2023-03-15T16:27:04.573Z,100027.63
2023-03-15T16:30:28.191Z,100023.66
2023-03-15T16:33:43.213Z,100035.59
2023-03-15T16:37:01.165Z,100037.53
2023-03-15T16:40:35.434Z,100036.25
2023-03-15T16:43:44.311Z,100052.38
2023-03-15T16:47:01.149Z,100058.88
2023-03-15T16:50:10.725Z,100059.88
2023-03-15T16:53:20.164Z,100069.09
2023-03-15T16:56:32.581Z,100075.44
2023-03-15T16:59:41.197Z,100073.44
2023-03-15T17:06:24.194Z,100092.63
2023-03-15T17:09:32.863Z,100107.78
2023-03-15T17:12:43.298Z,100102.84
2023-03-15T17:15:51.762Z,100109.97
2023-03-15T17:19:01.249Z,100106.53
2023-03-15T17:22:10.395Z,100111.09
2023-03-15T17:25:19.179Z,100110.41
2023-03-15T17:28:28.169Z,100114.06
2023-03-15T17:31:44.221Z,100115.22
2023-03-15T17:34:53.194Z,100129.72
2023-03-15T17:38:04.191Z,100133.00
2023-03-15T17:41:24.202Z,100152.94
2023-03-15T17:44:49.250Z,100157.12
2023-03-15T17:48:00.450Z,100168.97
2023-03-15T17:51:24.231Z,100173.19
2023-03-15T17:54:32.238Z,100184.88
2023-03-15T17:57:45.864Z,100184.59
2023-03-15T18:01:01.333Z,100196.84
2023-03-15T18:04:12.419Z,100199.53
2023-03-15T18:07:27.271Z,100205.63
2023-03-15T18:10:43.277Z,100220.37
2023-03-15T18:13:58.242Z,100215.03
2023-03-15T18:17:13.736Z,100213.75
2023-03-15T18:20:23.495Z,100209.53
2023-03-15T18:23:38.198Z,100215.88
2023-03-15T18:26:46.236Z,100225.03
2023-03-15T18:30:01.202Z,100224.47
2023-03-15T18:33:03.374Z,100238.81
2023-03-15T18:36:18.399Z,100237.59
2023-03-15T18:39:26.941Z,100248.28
2023-03-15T18:42:35.217Z,100246.72
2023-03-15T18:45:58.322Z,100253.06
2023-03-15T18:49:07.231Z,100250.22
2023-03-15T18:52:15.782Z,100248.69
2023-03-15T18:55:31.250Z,100250.66
2023-03-15T18:58:35.971Z,100261.22
2023-03-15T19:01:51.221Z,100240.13
2023-03-15T19:04:56.683Z,100249.69
2023-03-15T19:08:11.253Z,100260.81
2023-03-15T19:11:20.244Z,100264.59
2023-03-15T19:14:30.203Z,100272.38
2023-03-15T19:17:49.401Z,100269.12
2023-03-15T19:20:59.280Z,100273.91
2023-03-15T19:24:08.386Z,100277.16
2023-03-15T19:27:27.458Z,100282.25
2023-03-15T19:30:36.023Z,100284.91
2023-03-15T19:33:52.228Z,100289.97
2023-03-15T19:37:08.280Z,100293.91
2023-03-15T19:40:11.681Z,100301.16
2023-03-15T19:43:26.296Z,100309.09
2023-03-15T19:46:34.853Z,100320.47
2023-03-15T19:49:49.346Z,100317.66
2023-03-15T19:52:52.185Z,100315.13
2023-03-15T19:56:11.262Z,100320.59
2023-03-15T19:59:13.305Z,100327.34
2023-03-15T20:02:31.266Z,100329.31
2023-03-15T20:05:41.286Z,100334.22
2023-03-15T20:08:49.863Z,100341.00
2023-03-15T20:12:07.462Z,100339.00
2023-03-15T20:15:18.029Z,100341.66
2023-03-15T20:18:27.253Z,100347.16
2023-03-15T20:21:42.254Z,100353.78
2023-03-15T20:24:44.054Z,100361.50
2023-03-15T20:27:59.245Z,100358.03
2023-03-15T20:31:05.768Z,100372.09
2023-03-15T20:34:20.304Z,100373.66
2023-03-15T20:37:34.318Z,100380.25
2023-03-15T20:40:49.320Z,100373.25
2023-03-15T20:44:04.700Z,100375.22
2023-03-15T20:47:13.268Z,100373.81
2023-03-15T20:50:28.364Z,100370.03
2023-03-15T20:53:33.471Z,100372.28
2023-03-15T20:56:48.270Z,100380.41
2023-03-15T20:59:50.260Z,100376.47
2023-03-15T21:03:05.343Z,100386.31
2023-03-15T21:06:17.309Z,100383.97
2023-03-15T21:09:32.357Z,100386.59
2023-03-15T21:12:47.357Z,100391.00
2023-03-15T21:15:56.023Z,100387.69
2023-03-15T21:19:04.272Z,100391.75
2023-03-15T21:22:13.194Z,100390.63
2023-03-15T21:25:21.306Z,100386.13
2023-03-15T21:28:30.970Z,100382.94
2023-03-15T21:31:39.320Z,100370.62
2023-03-15T21:34:54.276Z,100382.81
2023-03-15T21:37:56.019Z,100389.22
2023-03-15T21:41:15.308Z,100381.06
2023-03-15T21:44:37.294Z,100379.34
2023-03-15T21:47:52.295Z,100383.03
2023-03-15T21:51:08.273Z,100386.56
2023-03-15T21:54:16.405Z,100384.31
2023-03-15T21:57:24.866Z,100380.47
2023-03-15T22:00:33.511Z,100393.16
2023-03-15T22:03:48.308Z,100388.75
2023-03-15T22:06:57.328Z,100391.66
2023-03-15T22:10:07.110Z,100389.78
2023-03-15T22:13:15.289Z,100388.41
2023-03-15T22:16:23.829Z,100388.41
2023-03-15T22:19:32.345Z,100387.16
2023-03-15T22:22:42.665Z,100393.66
2023-03-15T22:25:58.325Z,100389.03
2023-03-15T22:29:00.296Z,100399.16
2023-03-15T22:32:16.341Z,100400.66
2023-03-15T22:35:28.415Z,100401.06
2023-03-15T22:38:37.404Z,100400.50
2023-03-15T22:41:46.325Z,100401.00
2023-03-15T22:45:01.601Z,100399.72
2023-03-15T22:48:16.350Z,100399.87
2023-03-15T22:51:25.293Z,100403.25
2023-03-15T22:54:34.160Z,100412.19
2023-03-15T22:57:49.398Z,100420.22
2023-03-15T23:00:51.403Z,100414.28
2023-03-15T23:04:09.562Z,100418.06
2023-03-15T23:07:25.337Z,100422.19
2023-03-15T23:10:34.403Z,100413.03
2023-03-15T23:13:43.098Z,100415.12
2023-03-15T23:16:51.375Z,100417.78
2023-03-15T23:20:06.385Z,100416.94
2023-03-15T23:23:08.742Z,100430.91
2023-03-15T23:26:23.411Z,100432.41
2023-03-15T23:29:34.129Z,100408.69
2023-03-15T23:32:52.416Z,100437.25
2023-03-15T23:36:01.420Z,100441.28
2023-03-15T23:39:09.986Z,100444.31
2023-03-15T23:42:19.660Z,100446.34
2023-03-15T23:45:41.350Z,100442.44
2023-03-15T23:48:49.384Z,100446.53
2023-03-15T23:52:07.370Z,100442.91
2023-03-15T23:55:16.387Z,100443.41
2023-03-15T23:58:25.041Z,100455.41
